Terminal Aerodrome Forecast
Issued by NWS Twin Cities, MN

Home | Current Version | Previous Version | Text Only | Print | Product List | Glossary On
Versions: 1 2 3 4 5 6 7 8 9 10 11 12 13 14 15 16 17
309
FTUS43 KMPX 142253 AAB
TAFEAU
TAF AMD
KEAU 142253Z 1423/1518 05008G13KT 2SM -SHRA BR SCT008 OVC015
     FM150000 05012G17KT 6SM -SHRA BR OVC008
     FM150800 34014G22KT P6SM -RA OVC015
     FM151400 33013G18KT P6SM BKN025=

USA.gov is the U.S. government's official web portal to all federal, state and local government web resources and services.